Etusivu
METAR-TAF:

METAR-TAF

Lentoasemat :

Prinsessa Julianan lentoasema

Sint Maarten, Alankomaiden Antillit

Leveyspiiri: 18-03N, Pituuspiiri: 063-07W, korkeus merenpinnasta: 4 m

Tämänhetkinen sää

Tämä raportti tehtiin 49 minuuttia sitten, kello 11.00 UTC
Tuuli 7 kn idästä, vaihdellen idän/koillisen ja idän/kaakon välillä
Lämpötila 28°C
Kosteus 70%
Ilmanpaine 1016 hPa
Näkyvyys 10 km tai enemmän
Muutamia pilviä 1800 ft:n korkeudessa

METAR: TNCM 221100Z 09007KT 060V120 9999 FEW018 28/22 Q1016 A3000 NOSIG

Aika: 07:49 (11:49 UTC)

Sääennuste

Tämä raportti tehtiin 6 tuntia ja 18 minuuttia sitten, kello 05.31 UTC
Ennuste voimassa 22. päivästä klo 06 UTC - 23. päivään klo 06 UTC
Tuuli 12 kn idästä
Näkyvyys: 10 km
Hajanaisia pilviä 2000 ft:n korkeudessa
Hajanaisia pilviä 3500 ft:n korkeudessa
sadekuuroja näköpiirissä

TAF: TNCM 220531Z 2206/2306 10012KT P6SM VCSH SCT020 SCT035

Säähavainnot ja -ennusteet yli 4000 lentoasemalta (METAR- ja TAF-raportit).

Käytössä olevat sääasemat on merkitty karttaan keltaisilla ja punaisilla pisteillä.

Aseta hiiri pisteen päälle nähdäksesi sääaseman nimen.

Klikkaa sitten nähdäksesi säähavainnot ja -ennusteet.

Kartan vaihtaminen: klikkaa mustalla rastilla varustettuja vihreitä pisteitä, niin voit zoomata sisään; viivalla varustettua vihreää pistettä, niin voit zoomata ulos tai vihreitä nuolia, niin pääset viereisille kartoille.


METAR-TAF: